sensor_id;sensor_type;location;lat;lon;timestamp;P1;durP1;ratioP1;P2;durP2;ratioP2
23046;SDS011;11691;51.462;6.902;2023-04-03T00:01:36;9.47;;;5.50;;
23046;SDS011;11691;51.462;6.902;2023-04-03T00:04:03;9.30;;;6.10;;
23046;SDS011;11691;51.462;6.902;2023-04-03T00:06:29;11.00;;;6.30;;
23046;SDS011;11691;51.462;6.902;2023-04-03T00:08:55;10.70;;;6.50;;
23046;SDS011;11691;51.462;6.902;2023-04-03T00:11:21;10.50;;;6.00;;
23046;SDS011;11691;51.462;6.902;2023-04-03T00:13:47;9.90;;;5.77;;
23046;SDS011;11691;51.462;6.902;2023-04-03T00:16:13;7.60;;;5.83;;
23046;SDS011;11691;51.462;6.902;2023-04-03T00:18:40;10.83;;;5.80;;
23046;SDS011;11691;51.462;6.902;2023-04-03T00:21:06;7.90;;;5.43;;
23046;SDS011;11691;51.462;6.902;2023-04-03T00:23:33;8.00;;;5.80;;
23046;SDS011;11691;51.462;6.902;2023-04-03T00:25:59;10.97;;;6.30;;
23046;SDS011;11691;51.462;6.902;2023-04-03T00:28:25;11.60;;;6.53;;
23046;SDS011;11691;51.462;6.902;2023-04-03T00:30:51;10.40;;;5.83;;
23046;SDS011;11691;51.462;6.902;2023-04-03T00:33:17;10.40;;;6.43;;
23046;SDS011;11691;51.462;6.902;2023-04-03T00:35:46;11.03;;;6.33;;
23046;SDS011;11691;51.462;6.902;2023-04-03T00:38:13;9.80;;;6.30;;
23046;SDS011;11691;51.462;6.902;2023-04-03T00:40:41;9.07;;;6.40;;
23046;SDS011;11691;51.462;6.902;2023-04-03T00:43:15;10.40;;;6.13;;
23046;SDS011;11691;51.462;6.902;2023-04-03T00:45:42;9.97;;;6.10;;
23046;SDS011;11691;51.462;6.902;2023-04-03T00:48:10;10.70;;;6.77;;
23046;SDS011;11691;51.462;6.902;2023-04-03T00:50:39;10.07;;;6.33;;
23046;SDS011;11691;51.462;6.902;2023-04-03T00:53:06;10.17;;;6.93;;
23046;SDS011;11691;51.462;6.902;2023-04-03T00:55:34;11.63;;;6.63;;
23046;SDS011;11691;51.462;6.902;2023-04-03T00:58:02;11.97;;;6.77;;
23046;SDS011;11691;51.462;6.902;2023-04-03T01:00:28;11.40;;;7.23;;
23046;SDS011;11691;51.462;6.902;2023-04-03T01:02:54;12.23;;;7.83;;
23046;SDS011;11691;51.462;6.902;2023-04-03T01:05:21;11.40;;;7.00;;
23046;SDS011;11691;51.462;6.902;2023-04-03T01:07:47;13.00;;;7.60;;
23046;SDS011;11691;51.462;6.902;2023-04-03T01:10:15;14.37;;;8.07;;
23046;SDS011;11691;51.462;6.902;2023-04-03T01:12:44;13.53;;;7.63;;
23046;SDS011;11691;51.462;6.902;2023-04-03T01:15:12;14.13;;;7.67;;
23046;SDS011;11691;51.462;6.902;2023-04-03T01:17:41;14.87;;;8.17;;
23046;SDS011;11691;51.462;6.902;2023-04-03T01:28:03;12.87;;;8.67;;
23046;SDS011;11691;51.462;6.902;2023-04-03T01:30:32;13.40;;;7.53;;
23046;SDS011;11691;51.462;6.902;2023-04-03T01:32:58;10.63;;;6.63;;
23046;SDS011;11691;51.462;6.902;2023-04-03T01:35:24;14.30;;;7.30;;
23046;SDS011;11691;51.462;6.902;2023-04-03T01:37:50;10.87;;;6.57;;
23046;SDS011;11691;51.462;6.902;2023-04-03T01:40:16;13.63;;;5.50;;
23046;SDS011;11691;51.462;6.902;2023-04-03T01:42:42;13.30;;;6.00;;
23046;SDS011;11691;51.462;6.902;2023-04-03T01:45:08;9.87;;;5.40;;
23046;SDS011;11691;51.462;6.902;2023-04-03T01:47:35;9.43;;;5.10;;
23046;SDS011;11691;51.462;6.902;2023-04-03T01:50:01;10.90;;;5.27;;
23046;SDS011;11691;51.462;6.902;2023-04-03T01:52:27;8.00;;;5.00;;
23046;SDS011;11691;51.462;6.902;2023-04-03T01:54:53;10.53;;;4.80;;
23046;SDS011;11691;51.462;6.902;2023-04-03T01:57:19;7.63;;;4.13;;
23046;SDS011;11691;51.462;6.902;2023-04-03T01:59:45;8.20;;;4.40;;
23046;SDS011;11691;51.462;6.902;2023-04-03T02:02:11;9.23;;;4.30;;
23046;SDS011;11691;51.462;6.902;2023-04-03T02:04:39;6.53;;;4.20;;
23046;SDS011;11691;51.462;6.902;2023-04-03T02:07:05;7.90;;;4.10;;
23046;SDS011;11691;51.462;6.902;2023-04-03T02:09:31;14.00;;;4.77;;
23046;SDS011;11691;51.462;6.902;2023-04-03T02:11:57;7.37;;;4.40;;
23046;SDS011;11691;51.462;6.902;2023-04-03T02:14:23;7.77;;;4.03;;
23046;SDS011;11691;51.462;6.902;2023-04-03T02:16:49;9.37;;;4.07;;
23046;SDS011;11691;51.462;6.902;2023-04-03T02:19:15;6.97;;;4.50;;
23046;SDS011;11691;51.462;6.902;2023-04-03T02:21:41;7.30;;;4.60;;
23046;SDS011;11691;51.462;6.902;2023-04-03T02:24:07;5.90;;;4.07;;
23046;SDS011;11691;51.462;6.902;2023-04-03T02:26:33;8.00;;;3.90;;
23046;SDS011;11691;51.462;6.902;2023-04-03T02:28:59;7.80;;;3.67;;
23046;SDS011;11691;51.462;6.902;2023-04-03T02:31:25;5.57;;;3.10;;
23046;SDS011;11691;51.462;6.902;2023-04-03T02:33:51;6.63;;;3.57;;
23046;SDS011;11691;51.462;6.902;2023-04-03T02:36:17;7.30;;;3.50;;
23046;SDS011;11691;51.462;6.902;2023-04-03T02:38:43;7.27;;;3.40;;
23046;SDS011;11691;51.462;6.902;2023-04-03T02:41:10;6.40;;;3.40;;
23046;SDS011;11691;51.462;6.902;2023-04-03T02:43:37;6.07;;;3.27;;
23046;SDS011;11691;51.462;6.902;2023-04-03T02:46:03;7.73;;;3.23;;
23046;SDS011;11691;51.462;6.902;2023-04-03T02:48:30;9.60;;;3.13;;
23046;SDS011;11691;51.462;6.902;2023-04-03T02:50:56;5.23;;;2.93;;
23046;SDS011;11691;51.462;6.902;2023-04-03T02:53:22;5.93;;;3.00;;
23046;SDS011;11691;51.462;6.902;2023-04-03T02:55:48;6.77;;;2.97;;
23046;SDS011;11691;51.462;6.902;2023-04-03T02:58:14;7.63;;;3.20;;
23046;SDS011;11691;51.462;6.902;2023-04-03T03:00:41;5.63;;;2.63;;
23046;SDS011;11691;51.462;6.902;2023-04-03T03:03:07;7.20;;;2.90;;
23046;SDS011;11691;51.462;6.902;2023-04-03T03:05:33;6.53;;;3.00;;
23046;SDS011;11691;51.462;6.902;2023-04-03T03:07:59;7.10;;;2.67;;
23046;SDS011;11691;51.462;6.902;2023-04-03T03:10:25;5.70;;;2.30;;
23046;SDS011;11691;51.462;6.902;2023-04-03T03:12:51;5.53;;;2.30;;
23046;SDS011;11691;51.462;6.902;2023-04-03T03:15:18;5.10;;;2.60;;
23046;SDS011;11691;51.462;6.902;2023-04-03T03:17:44;4.43;;;2.53;;
23046;SDS011;11691;51.462;6.902;2023-04-03T03:20:10;4.73;;;2.30;;
23046;SDS011;11691;51.462;6.902;2023-04-03T03:22:39;5.43;;;2.17;;
23046;SDS011;11691;51.462;6.902;2023-04-03T03:25:05;3.73;;;2.20;;
23046;SDS011;11691;51.462;6.902;2023-04-03T03:27:31;4.23;;;2.03;;
23046;SDS011;11691;51.462;6.902;2023-04-03T03:29:57;5.73;;;2.37;;
23046;SDS011;11691;51.462;6.902;2023-04-03T03:32:22;7.10;;;2.43;;
23046;SDS011;11691;51.462;6.902;2023-04-03T03:34:48;5.17;;;2.53;;
23046;SDS011;11691;51.462;6.902;2023-04-03T03:37:14;5.00;;;2.60;;
23046;SDS011;11691;51.462;6.902;2023-04-03T03:39:40;3.90;;;2.10;;
23046;SDS011;11691;51.462;6.902;2023-04-03T03:42:06;6.27;;;2.73;;
23046;SDS011;11691;51.462;6.902;2023-04-03T03:44:32;5.77;;;2.40;;
23046;SDS011;11691;51.462;6.902;2023-04-03T03:46:58;6.63;;;2.57;;
23046;SDS011;11691;51.462;6.902;2023-04-03T03:49:24;4.90;;;2.20;;
23046;SDS011;11691;51.462;6.902;2023-04-03T03:51:51;9.47;;;2.57;;
23046;SDS011;11691;51.462;6.902;2023-04-03T03:54:17;6.47;;;2.40;;
23046;SDS011;11691;51.462;6.902;2023-04-03T03:56:43;6.07;;;2.20;;
23046;SDS011;11691;51.462;6.902;2023-04-03T03:59:11;6.33;;;2.70;;
23046;SDS011;11691;51.462;6.902;2023-04-03T04:01:37;7.00;;;2.73;;
23046;SDS011;11691;51.462;6.902;2023-04-03T04:04:03;4.20;;;2.10;;
23046;SDS011;11691;51.462;6.902;2023-04-03T04:06:29;5.73;;;2.10;;
23046;SDS011;11691;51.462;6.902;2023-04-03T04:08:55;6.23;;;2.07;;
23046;SDS011;11691;51.462;6.902;2023-04-03T04:11:21;3.90;;;2.27;;
23046;SDS011;11691;51.462;6.902;2023-04-03T04:13:47;4.93;;;2.30;;
23046;SDS011;11691;51.462;6.902;2023-04-03T04:16:13;5.50;;;1.77;;
23046;SDS011;11691;51.462;6.902;2023-04-03T04:18:39;3.90;;;1.77;;
23046;SDS011;11691;51.462;6.902;2023-04-03T04:21:05;6.70;;;2.13;;
23046;SDS011;11691;51.462;6.902;2023-04-03T04:23:31;4.40;;;2.00;;
23046;SDS011;11691;51.462;6.902;2023-04-03T04:25:57;5.63;;;2.10;;
23046;SDS011;11691;51.462;6.902;2023-04-03T04:28:23;4.23;;;2.07;;
23046;SDS011;11691;51.462;6.902;2023-04-03T04:30:49;3.00;;;1.47;;
23046;SDS011;11691;51.462;6.902;2023-04-03T04:33:15;3.03;;;1.63;;
23046;SDS011;11691;51.462;6.902;2023-04-03T04:35:42;5.63;;;1.83;;
23046;SDS011;11691;51.462;6.902;2023-04-03T04:38:08;4.47;;;2.17;;
23046;SDS011;11691;51.462;6.902;2023-04-03T04:40:35;5.67;;;1.70;;
23046;SDS011;11691;51.462;6.902;2023-04-03T04:43:02;5.17;;;1.93;;
23046;SDS011;11691;51.462;6.902;2023-04-03T04:45:28;4.53;;;1.67;;
23046;SDS011;11691;51.462;6.902;2023-04-03T04:47:55;4.47;;;1.57;;
23046;SDS011;11691;51.462;6.902;2023-04-03T04:50:21;4.73;;;2.27;;
23046;SDS011;11691;51.462;6.902;2023-04-03T04:52:47;5.70;;;2.00;;
23046;SDS011;11691;51.462;6.902;2023-04-03T04:55:13;3.93;;;1.67;;
23046;SDS011;11691;51.462;6.902;2023-04-03T04:57:39;8.17;;;2.30;;
23046;SDS011;11691;51.462;6.902;2023-04-03T05:00:05;3.50;;;1.60;;
23046;SDS011;11691;51.462;6.902;2023-04-03T05:02:31;7.23;;;1.90;;
23046;SDS011;11691;51.462;6.902;2023-04-03T05:04:57;5.27;;;2.10;;
23046;SDS011;11691;51.462;6.902;2023-04-03T05:07:24;7.27;;;2.13;;
23046;SDS011;11691;51.462;6.902;2023-04-03T05:09:50;5.87;;;2.00;;
23046;SDS011;11691;51.462;6.902;2023-04-03T05:12:16;6.07;;;1.63;;
23046;SDS011;11691;51.462;6.902;2023-04-03T05:14:42;5.63;;;2.17;;
23046;SDS011;11691;51.462;6.902;2023-04-03T05:17:08;4.70;;;1.90;;
23046;SDS011;11691;51.462;6.902;2023-04-03T05:19:34;5.80;;;1.80;;
23046;SDS011;11691;51.462;6.902;2023-04-03T05:22:00;4.60;;;1.80;;
23046;SDS011;11691;51.462;6.902;2023-04-03T05:24:25;6.03;;;2.20;;
23046;SDS011;11691;51.462;6.902;2023-04-03T05:26:51;3.00;;;1.80;;
23046;SDS011;11691;51.462;6.902;2023-04-03T05:29:17;6.17;;;2.30;;
23046;SDS011;11691;51.462;6.902;2023-04-03T05:31:43;5.97;;;2.13;;
23046;SDS011;11691;51.462;6.902;2023-04-03T05:34:09;5.73;;;2.20;;
23046;SDS011;11691;51.462;6.902;2023-04-03T05:36:35;5.43;;;2.30;;
23046;SDS011;11691;51.462;6.902;2023-04-03T05:39:01;4.70;;;2.27;;
23046;SDS011;11691;51.462;6.902;2023-04-03T05:41:27;6.30;;;2.23;;
23046;SDS011;11691;51.462;6.902;2023-04-03T05:43:53;7.03;;;2.23;;
23046;SDS011;11691;51.462;6.902;2023-04-03T05:46:19;5.50;;;2.30;;
23046;SDS011;11691;51.462;6.902;2023-04-03T05:48:46;6.40;;;2.37;;
23046;SDS011;11691;51.462;6.902;2023-04-03T05:51:16;5.87;;;2.40;;
23046;SDS011;11691;51.462;6.902;2023-04-03T05:53:45;4.70;;;2.17;;
23046;SDS011;11691;51.462;6.902;2023-04-03T05:56:12;8.87;;;2.40;;
23046;SDS011;11691;51.462;6.902;2023-04-03T05:58:38;5.27;;;2.27;;
23046;SDS011;11691;51.462;6.902;2023-04-03T06:01:04;10.77;;;2.33;;
23046;SDS011;11691;51.462;6.902;2023-04-03T06:03:30;4.43;;;2.23;;
23046;SDS011;11691;51.462;6.902;2023-04-03T06:05:56;7.47;;;2.30;;
23046;SDS011;11691;51.462;6.902;2023-04-03T06:08:22;6.67;;;2.20;;
23046;SDS011;11691;51.462;6.902;2023-04-03T06:10:49;8.43;;;2.20;;
23046;SDS011;11691;51.462;6.902;2023-04-03T06:13:16;6.10;;;2.67;;
23046;SDS011;11691;51.462;6.902;2023-04-03T06:15:42;4.67;;;2.30;;
23046;SDS011;11691;51.462;6.902;2023-04-03T06:18:09;5.80;;;1.90;;
23046;SDS011;11691;51.462;6.902;2023-04-03T06:20:35;9.10;;;2.30;;
23046;SDS011;11691;51.462;6.902;2023-04-03T06:23:01;3.37;;;2.10;;
23046;SDS011;11691;51.462;6.902;2023-04-03T06:25:27;4.70;;;2.00;;
23046;SDS011;11691;51.462;6.902;2023-04-03T06:27:53;8.93;;;2.60;;
23046;SDS011;11691;51.462;6.902;2023-04-03T06:30:20;5.50;;;1.90;;
23046;SDS011;11691;51.462;6.902;2023-04-03T06:32:46;7.10;;;2.07;;
23046;SDS011;11691;51.462;6.902;2023-04-03T06:35:12;8.00;;;2.43;;
23046;SDS011;11691;51.462;6.902;2023-04-03T06:37:38;5.37;;;2.20;;
23046;SDS011;11691;51.462;6.902;2023-04-03T06:40:05;8.97;;;2.20;;
23046;SDS011;11691;51.462;6.902;2023-04-03T06:42:34;7.20;;;2.03;;
23046;SDS011;11691;51.462;6.902;2023-04-03T06:45:00;6.67;;;2.10;;
23046;SDS011;11691;51.462;6.902;2023-04-03T06:47:26;7.43;;;2.17;;
23046;SDS011;11691;51.462;6.902;2023-04-03T06:49:52;5.03;;;2.03;;
23046;SDS011;11691;51.462;6.902;2023-04-03T06:52:18;3.73;;;1.93;;
23046;SDS011;11691;51.462;6.902;2023-04-03T06:54:45;8.17;;;2.00;;
23046;SDS011;11691;51.462;6.902;2023-04-03T06:57:12;6.63;;;2.30;;
23046;SDS011;11691;51.462;6.902;2023-04-03T06:59:38;6.93;;;2.20;;
23046;SDS011;11691;51.462;6.902;2023-04-03T07:02:05;4.23;;;2.17;;
23046;SDS011;11691;51.462;6.902;2023-04-03T07:04:31;6.53;;;2.00;;
23046;SDS011;11691;51.462;6.902;2023-04-03T07:06:57;8.03;;;2.23;;
23046;SDS011;11691;51.462;6.902;2023-04-03T07:09:23;7.30;;;2.10;;
23046;SDS011;11691;51.462;6.902;2023-04-03T07:11:50;5.90;;;2.23;;
23046;SDS011;11691;51.462;6.902;2023-04-03T07:14:16;7.77;;;1.97;;
23046;SDS011;11691;51.462;6.902;2023-04-03T07:16:42;5.90;;;2.03;;
23046;SDS011;11691;51.462;6.902;2023-04-03T07:19:08;3.67;;;1.97;;
23046;SDS011;11691;51.462;6.902;2023-04-03T07:21:34;4.57;;;1.93;;
23046;SDS011;11691;51.462;6.902;2023-04-03T07:24:00;6.27;;;1.93;;
23046;SDS011;11691;51.462;6.902;2023-04-03T07:26:26;5.60;;;2.43;;
23046;SDS011;11691;51.462;6.902;2023-04-03T07:28:53;4.97;;;1.50;;
23046;SDS011;11691;51.462;6.902;2023-04-03T07:31:18;5.57;;;1.57;;
23046;SDS011;11691;51.462;6.902;2023-04-03T07:33:45;5.73;;;2.03;;
23046;SDS011;11691;51.462;6.902;2023-04-03T07:36:15;7.03;;;2.10;;
23046;SDS011;11691;51.462;6.902;2023-04-03T07:38:41;4.10;;;1.90;;
23046;SDS011;11691;51.462;6.902;2023-04-03T07:41:10;6.47;;;2.10;;
23046;SDS011;11691;51.462;6.902;2023-04-03T07:43:37;5.17;;;1.90;;
23046;SDS011;11691;51.462;6.902;2023-04-03T07:46:04;6.83;;;1.87;;
23046;SDS011;11691;51.462;6.902;2023-04-03T07:48:30;5.00;;;1.87;;
23046;SDS011;11691;51.462;6.902;2023-04-03T07:50:59;5.07;;;2.10;;
23046;SDS011;11691;51.462;6.902;2023-04-03T07:53:26;5.20;;;1.50;;
23046;SDS011;11691;51.462;6.902;2023-04-03T07:55:52;4.93;;;1.97;;
23046;SDS011;11691;51.462;6.902;2023-04-03T07:58:20;5.47;;;1.93;;
23046;SDS011;11691;51.462;6.902;2023-04-03T08:00:46;4.53;;;1.67;;
23046;SDS011;11691;51.462;6.902;2023-04-03T08:03:13;4.40;;;1.77;;
23046;SDS011;11691;51.462;6.902;2023-04-03T08:05:41;4.43;;;1.90;;
23046;SDS011;11691;51.462;6.902;2023-04-03T08:08:09;3.45;;;1.38;;
23046;SDS011;11691;51.462;6.902;2023-04-03T08:10:36;4.20;;;1.55;;
23046;SDS011;11691;51.462;6.902;2023-04-03T08:13:03;5.93;;;1.63;;
23046;SDS011;11691;51.462;6.902;2023-04-03T08:15:30;5.40;;;1.42;;
23046;SDS011;11691;51.462;6.902;2023-04-03T08:17:56;4.05;;;1.50;;
23046;SDS011;11691;51.462;6.902;2023-04-03T08:20:22;5.28;;;1.80;;
23046;SDS011;11691;51.462;6.902;2023-04-03T08:22:48;4.40;;;1.60;;
23046;SDS011;11691;51.462;6.902;2023-04-03T08:25:14;4.68;;;1.70;;
23046;SDS011;11691;51.462;6.902;2023-04-03T08:27:40;5.45;;;1.83;;
23046;SDS011;11691;51.462;6.902;2023-04-03T08:30:06;3.33;;;1.48;;
23046;SDS011;11691;51.462;6.902;2023-04-03T08:32:33;4.03;;;1.65;;
23046;SDS011;11691;51.462;6.902;2023-04-03T08:35:00;2.78;;;1.45;;
23046;SDS011;11691;51.462;6.902;2023-04-03T08:37:26;5.28;;;1.52;;
23046;SDS011;11691;51.462;6.902;2023-04-03T08:39:51;3.90;;;1.50;;
23046;SDS011;11691;51.462;6.902;2023-04-03T08:45:09;3.90;;;1.55;;
23046;SDS011;11691;51.462;6.902;2023-04-03T08:47:42;2.78;;;1.52;;
23046;SDS011;11691;51.462;6.902;2023-04-03T08:50:30;5.15;;;1.40;;
23046;SDS011;11691;51.462;6.902;2023-04-03T08:52:58;3.50;;;1.30;;
23046;SDS011;11691;51.462;6.902;2023-04-03T08:55:43;3.85;;;1.45;;
23046;SDS011;11691;51.462;6.902;2023-04-03T08:58:12;3.67;;;1.00;;
23046;SDS011;11691;51.462;6.902;2023-04-03T09:03:13;6.75;;;1.55;;
23046;SDS011;11691;51.462;6.902;2023-04-03T09:05:47;2.25;;;1.05;;
23046;SDS011;11691;51.462;6.902;2023-04-03T09:10:46;4.88;;;1.00;;
23046;SDS011;11691;51.462;6.902;2023-04-03T09:13:33;4.43;;;1.30;;
23046;SDS011;11691;51.462;6.902;2023-04-03T09:16:04;3.25;;;1.13;;
23046;SDS011;11691;51.462;6.902;2023-04-03T09:18:38;3.80;;;1.65;;
23046;SDS011;11691;51.462;6.902;2023-04-03T09:21:16;1.95;;;0.90;;
23046;SDS011;11691;51.462;6.902;2023-04-03T09:23:51;1.55;;;1.05;;
23046;SDS011;11691;51.462;6.902;2023-04-03T09:26:24;2.90;;;0.93;;
23046;SDS011;11691;51.462;6.902;2023-04-03T09:28:51;2.22;;;1.17;;
23046;SDS011;11691;51.462;6.902;2023-04-03T09:31:24;2.80;;;0.90;;
23046;SDS011;11691;51.462;6.902;2023-04-03T09:33:52;2.63;;;1.08;;
23046;SDS011;11691;51.462;6.902;2023-04-03T09:39:20;6.00;;;1.20;;
23046;SDS011;11691;51.462;6.902;2023-04-03T09:42:03;1.67;;;0.85;;
23046;SDS011;11691;51.462;6.902;2023-04-03T09:44:31;2.08;;;0.90;;
23046;SDS011;11691;51.462;6.902;2023-04-03T09:46:58;3.88;;;1.00;;
23046;SDS011;11691;51.462;6.902;2023-04-03T09:49:25;2.22;;;0.85;;
23046;SDS011;11691;51.462;6.902;2023-04-03T09:51:51;2.90;;;0.77;;
23046;SDS011;11691;51.462;6.902;2023-04-03T09:54:30;2.47;;;0.77;;
23046;SDS011;11691;51.462;6.902;2023-04-03T09:56:58;1.65;;;0.90;;
23046;SDS011;11691;51.462;6.902;2023-04-03T09:59:27;1.15;;;0.68;;
23046;SDS011;11691;51.462;6.902;2023-04-03T10:01:57;2.45;;;0.70;;
23046;SDS011;11691;51.462;6.902;2023-04-03T10:04:43;1.60;;;0.82;;
23046;SDS011;11691;51.462;6.902;2023-04-03T10:07:29;3.30;;;0.80;;
23046;SDS011;11691;51.462;6.902;2023-04-03T10:09:56;3.60;;;0.85;;
23046;SDS011;11691;51.462;6.902;2023-04-03T10:12:22;1.45;;;0.80;;
23046;SDS011;11691;51.462;6.902;2023-04-03T10:14:58;2.15;;;0.60;;
23046;SDS011;11691;51.462;6.902;2023-04-03T10:20:09;2.78;;;0.98;;
23046;SDS011;11691;51.462;6.902;2023-04-03T10:28:01;3.10;;;1.00;;
23046;SDS011;11691;51.462;6.902;2023-04-03T10:35:42;2.28;;;0.85;;
23046;SDS011;11691;51.462;6.902;2023-04-03T10:43:52;3.90;;;1.05;;
23046;SDS011;11691;51.462;6.902;2023-04-03T10:46:28;3.78;;;0.82;;
23046;SDS011;11691;51.462;6.902;2023-04-03T10:49:05;2.00;;;0.80;;
23046;SDS011;11691;51.462;6.902;2023-04-03T10:51:45;2.50;;;1.02;;
23046;SDS011;11691;51.462;6.902;2023-04-03T10:54:15;3.15;;;0.98;;
23046;SDS011;11691;51.462;6.902;2023-04-03T10:56:50;1.85;;;1.00;;
23046;SDS011;11691;51.462;6.902;2023-04-03T10:59:31;2.88;;;0.95;;
23046;SDS011;11691;51.462;6.902;2023-04-03T11:04:48;2.92;;;1.20;;
23046;SDS011;11691;51.462;6.902;2023-04-03T11:07:19;2.72;;;0.82;;
23046;SDS011;11691;51.462;6.902;2023-04-03T11:09:48;3.35;;;0.95;;
23046;SDS011;11691;51.462;6.902;2023-04-03T11:12:21;5.07;;;1.13;;
23046;SDS011;11691;51.462;6.902;2023-04-03T11:14:49;3.25;;;1.15;;
23046;SDS011;11691;51.462;6.902;2023-04-03T11:19:59;4.30;;;1.00;;
23046;SDS011;11691;51.462;6.902;2023-04-03T11:22:32;3.22;;;0.80;;
23046;SDS011;11691;51.462;6.902;2023-04-03T11:25:03;2.60;;;0.90;;
23046;SDS011;11691;51.462;6.902;2023-04-03T11:27:43;1.85;;;0.82;;
23046;SDS011;11691;51.462;6.902;2023-04-03T11:30:28;3.05;;;1.08;;
23046;SDS011;11691;51.462;6.902;2023-04-03T11:35:50;1.65;;;0.70;;
23046;SDS011;11691;51.462;6.902;2023-04-03T11:38:25;1.98;;;1.00;;
23046;SDS011;11691;51.462;6.902;2023-04-03T11:40:56;1.85;;;0.98;;
23046;SDS011;11691;51.462;6.902;2023-04-03T11:43:24;2.63;;;1.30;;
23046;SDS011;11691;51.462;6.902;2023-04-03T11:50:56;1.92;;;1.00;;
23046;SDS011;11691;51.462;6.902;2023-04-03T12:01:46;2.03;;;1.00;;
23046;SDS011;11691;51.462;6.902;2023-04-03T12:04:13;2.03;;;0.90;;
23046;SDS011;11691;51.462;6.902;2023-04-03T12:11:52;1.33;;;0.90;;
23046;SDS011;11691;51.462;6.902;2023-04-03T12:14:19;1.50;;;0.82;;
23046;SDS011;11691;51.462;6.902;2023-04-03T12:16:49;3.63;;;1.05;;
23046;SDS011;11691;51.462;6.902;2023-04-03T12:19:30;2.22;;;0.80;;
23046;SDS011;11691;51.462;6.902;2023-04-03T12:22:06;5.68;;;0.88;;
23046;SDS011;11691;51.462;6.902;2023-04-03T12:24:36;2.83;;;0.80;;
23046;SDS011;11691;51.462;6.902;2023-04-03T12:29:38;2.80;;;0.88;;
23046;SDS011;11691;51.462;6.902;2023-04-03T12:34:53;2.30;;;0.77;;
23046;SDS011;11691;51.462;6.902;2023-04-03T12:45:43;1.58;;;0.80;;
23046;SDS011;11691;51.462;6.902;2023-04-03T12:48:16;3.60;;;1.20;;
23046;SDS011;11691;51.462;6.902;2023-04-03T12:50:43;2.05;;;0.80;;
23046;SDS011;11691;51.462;6.902;2023-04-03T12:55:42;3.35;;;1.10;;
23046;SDS011;11691;51.462;6.902;2023-04-03T12:58:22;4.05;;;0.90;;
23046;SDS011;11691;51.462;6.902;2023-04-03T13:00:59;2.15;;;1.05;;
23046;SDS011;11691;51.462;6.902;2023-04-03T13:03:26;1.63;;;0.80;;
23046;SDS011;11691;51.462;6.902;2023-04-03T13:05:54;2.78;;;1.08;;
23046;SDS011;11691;51.462;6.902;2023-04-03T13:08:20;2.22;;;0.93;;
23046;SDS011;11691;51.462;6.902;2023-04-03T13:13:36;1.83;;;0.73;;
23046;SDS011;11691;51.462;6.902;2023-04-03T13:16:10;1.00;;;0.68;;
23046;SDS011;11691;51.462;6.902;2023-04-03T13:18:38;3.35;;;0.80;;
23046;SDS011;11691;51.462;6.902;2023-04-03T13:21:10;1.83;;;0.90;;
23046;SDS011;11691;51.462;6.902;2023-04-03T13:23:42;3.35;;;0.90;;
23046;SDS011;11691;51.462;6.902;2023-04-03T13:26:09;2.40;;;0.82;;
23046;SDS011;11691;51.462;6.902;2023-04-03T13:28:35;4.40;;;1.05;;
23046;SDS011;11691;51.462;6.902;2023-04-03T13:33:43;2.13;;;0.70;;
23046;SDS011;11691;51.462;6.902;2023-04-03T13:36:17;3.08;;;1.05;;
23046;SDS011;11691;51.462;6.902;2023-04-03T13:38:44;1.98;;;0.95;;
23046;SDS011;11691;51.462;6.902;2023-04-03T13:41:25;2.67;;;0.73;;
23046;SDS011;11691;51.462;6.902;2023-04-03T13:43:55;3.78;;;1.30;;
23046;SDS011;11691;51.462;6.902;2023-04-03T13:46:23;1.65;;;0.88;;
23046;SDS011;11691;51.462;6.902;2023-04-03T13:48:53;4.05;;;1.00;;
23046;SDS011;11691;51.462;6.902;2023-04-03T13:51:24;2.78;;;0.90;;
23046;SDS011;11691;51.462;6.902;2023-04-03T13:53:55;2.65;;;0.90;;
23046;SDS011;11691;51.462;6.902;2023-04-03T14:01:44;1.55;;;0.70;;
23046;SDS011;11691;51.462;6.902;2023-04-03T14:04:12;2.55;;;0.80;;
23046;SDS011;11691;51.462;6.902;2023-04-03T14:06:38;1.70;;;0.80;;
23046;SDS011;11691;51.462;6.902;2023-04-03T14:09:05;2.28;;;0.80;;
23046;SDS011;11691;51.462;6.902;2023-04-03T14:11:31;3.22;;;0.85;;
23046;SDS011;11691;51.462;6.902;2023-04-03T14:13:57;3.30;;;1.10;;
23046;SDS011;11691;51.462;6.902;2023-04-03T14:16:27;3.60;;;0.95;;
23046;SDS011;11691;51.462;6.902;2023-04-03T14:18:54;2.72;;;1.00;;
23046;SDS011;11691;51.462;6.902;2023-04-03T14:21:20;2.70;;;0.80;;
23046;SDS011;11691;51.462;6.902;2023-04-03T14:23:46;3.45;;;0.98;;
23046;SDS011;11691;51.462;6.902;2023-04-03T14:26:13;2.42;;;1.00;;
23046;SDS011;11691;51.462;6.902;2023-04-03T14:28:41;1.80;;;0.77;;
23046;SDS011;11691;51.462;6.902;2023-04-03T14:31:09;2.72;;;0.98;;
23046;SDS011;11691;51.462;6.902;2023-04-03T14:33:36;3.03;;;1.15;;
23046;SDS011;11691;51.462;6.902;2023-04-03T14:36:10;3.45;;;0.82;;
23046;SDS011;11691;51.462;6.902;2023-04-03T14:38:37;2.28;;;0.80;;
23046;SDS011;11691;51.462;6.902;2023-04-03T14:41:03;3.20;;;1.00;;
23046;SDS011;11691;51.462;6.902;2023-04-03T14:43:29;2.88;;;0.95;;
23046;SDS011;11691;51.462;6.902;2023-04-03T14:45:55;2.75;;;1.17;;
23046;SDS011;11691;51.462;6.902;2023-04-03T14:48:22;2.47;;;1.02;;
23046;SDS011;11691;51.462;6.902;2023-04-03T14:50:49;2.20;;;0.85;;
23046;SDS011;11691;51.462;6.902;2023-04-03T14:53:16;2.38;;;0.80;;
23046;SDS011;11691;51.462;6.902;2023-04-03T14:55:46;2.75;;;0.82;;
23046;SDS011;11691;51.462;6.902;2023-04-03T14:58:17;2.85;;;0.80;;
23046;SDS011;11691;51.462;6.902;2023-04-03T15:00:44;1.70;;;0.80;;
23046;SDS011;11691;51.462;6.902;2023-04-03T15:03:18;2.22;;;0.82;;
23046;SDS011;11691;51.462;6.902;2023-04-03T15:05:47;2.65;;;1.13;;
23046;SDS011;11691;51.462;6.902;2023-04-03T15:08:23;2.78;;;1.10;;
23046;SDS011;11691;51.462;6.902;2023-04-03T15:10:50;1.83;;;0.80;;
23046;SDS011;11691;51.462;6.902;2023-04-03T15:13:20;1.85;;;1.00;;
23046;SDS011;11691;51.462;6.902;2023-04-03T15:15:46;3.65;;;0.90;;
23046;SDS011;11691;51.462;6.902;2023-04-03T15:18:32;2.55;;;0.73;;
23046;SDS011;11691;51.462;6.902;2023-04-03T15:21:01;2.47;;;0.95;;
23046;SDS011;11691;51.462;6.902;2023-04-03T15:23:27;3.15;;;0.90;;
23046;SDS011;11691;51.462;6.902;2023-04-03T15:25:54;6.20;;;1.05;;
23046;SDS011;11691;51.462;6.902;2023-04-03T15:28:40;2.75;;;1.10;;
23046;SDS011;11691;51.462;6.902;2023-04-03T15:31:07;2.50;;;0.90;;
23046;SDS011;11691;51.462;6.902;2023-04-03T15:33:33;2.47;;;1.13;;
23046;SDS011;11691;51.462;6.902;2023-04-03T15:36:00;3.80;;;1.27;;
23046;SDS011;11691;51.462;6.902;2023-04-03T15:38:26;2.75;;;0.95;;
23046;SDS011;11691;51.462;6.902;2023-04-03T15:40:52;2.60;;;0.90;;
23046;SDS011;11691;51.462;6.902;2023-04-03T15:43:19;1.98;;;1.10;;
23046;SDS011;11691;51.462;6.902;2023-04-03T15:45:45;3.80;;;1.00;;
23046;SDS011;11691;51.462;6.902;2023-04-03T15:48:11;2.30;;;0.70;;
23046;SDS011;11691;51.462;6.902;2023-04-03T15:50:38;1.65;;;1.00;;
23046;SDS011;11691;51.462;6.902;2023-04-03T15:53:04;4.60;;;1.38;;
23046;SDS011;11691;51.462;6.902;2023-04-03T15:55:32;3.13;;;1.02;;
23046;SDS011;11691;51.462;6.902;2023-04-03T15:57:59;1.95;;;1.20;;
23046;SDS011;11691;51.462;6.902;2023-04-03T16:00:26;2.63;;;0.88;;
23046;SDS011;11691;51.462;6.902;2023-04-03T16:02:53;2.08;;;1.00;;
23046;SDS011;11691;51.462;6.902;2023-04-03T16:05:21;2.35;;;0.90;;
23046;SDS011;11691;51.462;6.902;2023-04-03T16:07:47;4.40;;;1.98;;
23046;SDS011;11691;51.462;6.902;2023-04-03T16:10:14;3.78;;;1.27;;
23046;SDS011;11691;51.462;6.902;2023-04-03T16:12:41;4.63;;;1.25;;
23046;SDS011;11691;51.462;6.902;2023-04-03T16:15:07;2.50;;;1.00;;
23046;SDS011;11691;51.462;6.902;2023-04-03T16:17:34;3.90;;;1.20;;
23046;SDS011;11691;51.462;6.902;2023-04-03T16:20:02;3.75;;;1.30;;
23046;SDS011;11691;51.462;6.902;2023-04-03T16:22:30;1.85;;;0.82;;